バンコク/スワンナプーム の空港の天気 - METARとTAF

スワンナプーム国際空港 ( VTBS / BKK ) - タイ サムットプラーカーン県 (バンコク近郊)
飛行場実況気象(Metar)
観測時間10/22 22:00 ICT (10/22 15:00 UTC)
風向・風速北 2m/s
視程10km以上
天気現象
少しの雲 雲底高度 610m
全天の8割程度の雲 雲底高度 2130m
気温27℃
湿度79%
気圧1011hPa
METARVTBS 221500Z 35004KT 9999 FEW020 BKN070 27/23 Q1011 NOSIG
過去の天気等 Google飛行場航空写真 Wunderground天気予報

過去48時間のMETAR

飛行場予報(TAF)
発表時間: 10/22 18:00 ICT (10/22 11:00 UTC)
予報対象時間: 22日19時 ICT ~ 24日1時 ICT
風向・風速東北東 3m/s
視程10km以上
少しの雲 雲底高度 610m
TAF VTBS 221100Z 2212/2318 06005KT 9999 FEW020